Huvudsida
METAR-TAF:

METAR-TAF

Flygplatser :

Grenchen, Schweiz

latitud: 47-10-53N, longitud: 007-24-59E, höjd: 430 m

Aktuellt väderrapport

Denna rapport gjordes för 16 minuter sedan, klockan 23:50 UTC
Vind 3 kt från nordost
Temperatur 1°C
Fuktighet 93%
Tryck 1003 hPa
Sikt: 6000 m

METAR: LSZG 152350Z AUTO 04003KT 6000 NSC 01/00 Q1003

Tid: 01:06 (00:06 UTC)

Väderprognos

Denna rapport gjordes för 4 timmar och 8 minuter sedan, klockan 19:58 UTC
Prognos gäller från 15 kl. 19 UTC till 15 kl. 24 UTC
Vind 3 kt varierande vindriktning
Sikt 10 km eller mer
Spridda moln på en höjd av 2000 ft
Temporärt
från 15 kl. 19 UTC till 15 kl. 21 UTC
Sikt 10 km eller mer
Inga moln under 1 500 m eller inga cumulonimbus
Blir
från 15 kl. 21 UTC till 15 kl. 22 UTC
Sikt: 4500 m
Spridda moln på en höjd av 1000 ft
fuktdis

TAF: LSZG 151958Z 1519/1524 VRB03KT 9999 SCT020 TEMPO 1519/1521 CAVOK BECMG 1521/1522 4500 BR SCT010

Aktuella väderrapporter och prognoser från 4000 flygplatser (METAR- och TAF-rapporter).

De tillgängliga stationerna syns som gula och röda prickar på kartan.

För musen över prickarna för att se namnen på stationerna.

Klicka sedan för att få väderrapporter och prognoser.

För att ändra kartan: Klicka på de gröna knapparna med ett svart kors på för att zooma in; den gröna knappen med ett streck på för att zooma ut; eller på de gröna pilarna för angränsande kartor.


METAR-TAF: